Time;durP1;ratioP1;P1;durP2;ratioP2;P2;SDS_P1;SDS_P2;PMS_P1;PMS_P2;Temp;Humidity;BMP_temperature;BMP_pressure;BME280_temperature;BME280_humidity;BME280_pressure;Samples;Min_cycle;Max_cycle;Signal;HPM_P1;HPM_P2
2021/05/10 00:00:46;;;;;;;5.00;2.90;;;13.60;82.50;;;;;;4999398;28;20188;-55
2021/05/10 00:03:12;;;;;;;3.20;2.93;;;13.60;83.40;;;;;;4997614;28;20534;-57
2021/05/10 00:05:38;;;;;;;4.70;2.90;;;13.60;84.00;;;;;;4996501;28;20462;-59
2021/05/10 00:08:06;;;;;;;5.37;2.93;;;13.60;84.00;;;;;;5002583;28;20208;-55
2021/05/10 00:10:32;;;;;;;2.83;2.53;;;13.50;83.00;;;;;;4999590;28;20587;-59
2021/05/10 00:12:58;;;;;;;2.93;2.63;;;13.50;83.00;;;;;;4996138;28;20606;-57
2021/05/10 00:15:24;;;;;;;5.13;3.00;;;13.40;84.70;;;;;;4995176;28;20516;-57
2021/05/10 00:17:49;;;;;;;3.27;2.57;;;13.30;85.70;;;;;;4997613;28;20463;-58
2021/05/10 00:20:15;;;;;;;3.53;2.47;;;13.30;85.10;;;;;;5000146;28;20215;-57
2021/05/10 00:22:41;;;;;;;5.73;3.20;;;13.20;84.90;;;;;;4996101;28;20191;-57
2021/05/10 00:25:07;;;;;;;2.97;2.63;;;13.20;84.60;;;;;;4998723;28;20177;-57
2021/05/10 00:27:32;;;;;;;9.80;2.83;;;13.20;83.90;;;;;;4995884;28;20192;-55
2021/05/10 00:29:58;;;;;;;3.13;2.83;;;13.20;83.10;;;;;;5003704;28;20564;-58
2021/05/10 00:32:24;;;;;;;3.10;2.90;;;13.20;82.80;;;;;;4996159;28;20192;-57
2021/05/10 00:34:50;;;;;;;4.83;3.10;;;13.30;83.40;;;;;;4998363;28;20648;-57
2021/05/10 00:37:16;;;;;;;7.97;3.23;;;13.20;83.60;;;;;;4997945;28;20258;-59
2021/05/10 00:39:42;;;;;;;2.87;2.67;;;13.20;84.10;;;;;;4998082;28;20459;-56
2021/05/10 00:42:07;;;;;;;3.10;2.77;;;13.20;84.60;;;;;;4997319;28;20188;-57
2021/05/10 00:44:33;;;;;;;5.17;2.80;;;13.10;85.10;;;;;;4997539;28;20262;-57
2021/05/10 00:46:59;;;;;;;3.77;2.87;;;13.10;85.80;;;;;;4996987;28;20196;-57
2021/05/10 00:49:24;;;;;;;4.63;2.77;;;13.00;86.40;;;;;;4993174;28;20341;-57
2021/05/10 00:51:50;;;;;;;4.97;2.90;;;13.00;87.00;;;;;;4996649;28;20176;-56
2021/05/10 00:54:16;;;;;;;4.90;3.20;;;12.90;87.00;;;;;;4999718;28;20173;-56
2021/05/10 00:56:42;;;;;;;3.07;2.40;;;12.90;87.40;;;;;;4997564;28;20192;-56
2021/05/10 00:59:07;;;;;;;10.80;3.10;;;12.80;87.10;;;;;;4994171;28;20241;-55
2021/05/10 01:01:33;;;;;;;3.40;2.97;;;12.80;87.80;;;;;;5000079;28;20227;-57
2021/05/10 01:03:59;;;;;;;3.00;2.80;;;12.70;87.20;;;;;;5006559;28;20200;-55
2021/05/10 01:06:25;;;;;;;2.90;2.60;;;12.70;87.00;;;;;;5003933;28;21135;-56
2021/05/10 01:08:51;;;;;;;4.50;2.97;;;12.60;87.30;;;;;;4997206;28;20716;-56
2021/05/10 01:11:17;;;;;;;3.70;2.50;;;12.60;87.80;;;;;;4996453;28;20180;-56
2021/05/10 01:13:44;;;;;;;3.70;3.10;;;12.50;88.70;;;;;;4999034;28;20438;-56
2021/05/10 01:16:10;;;;;;;4.53;3.33;;;12.50;89.70;;;;;;4996581;28;20185;-58
2021/05/10 01:18:36;;;;;;;3.10;2.90;;;12.50;90.00;;;;;;4996215;28;20474;-55
2021/05/10 01:21:03;;;;;;;7.27;3.40;;;12.40;90.20;;;;;;4997280;28;20439;-60
2021/05/10 01:23:29;;;;;;;3.30;3.00;;;12.40;90.20;;;;;;4999285;28;20514;-56
2021/05/10 01:25:56;;;;;;;2.77;2.57;;;12.40;90.30;;;;;;4993612;28;20435;-56
2021/05/10 01:28:22;;;;;;;7.13;3.33;;;12.30;90.40;;;;;;4996021;28;20980;-56
2021/05/10 01:30:50;;;;;;;3.53;3.23;;;12.30;90.70;;;;;;4997129;28;21217;-55
2021/05/10 01:33:18;;;;;;;2.90;2.60;;;12.30;90.70;;;;;;4997855;28;20432;-57
2021/05/10 01:35:46;;;;;;;3.93;2.77;;;12.30;90.70;;;;;;4995339;28;20427;-56
2021/05/10 01:38:13;;;;;;;3.10;2.67;;;12.30;90.80;;;;;;4998818;28;20467;-57
2021/05/10 01:40:39;;;;;;;3.53;3.20;;;12.20;90.80;;;;;;4995343;28;20573;-56
2021/05/10 01:43:05;;;;;;;4.70;2.53;;;12.30;90.70;;;;;;4995544;28;20896;-58
2021/05/10 01:45:32;;;;;;;6.80;2.80;;;12.20;90.60;;;;;;4994458;28;20423;-56
2021/05/10 01:48:05;;;;;;;3.60;2.90;;;12.20;90.40;;;;;;4994830;28;20431;-58
2021/05/10 01:50:32;;;;;;;5.40;3.10;;;12.20;90.40;;;;;;4995995;28;20518;-57
2021/05/10 01:52:58;;;;;;;3.07;2.83;;;12.10;90.50;;;;;;4994739;28;20541;-56
2021/05/10 01:55:25;;;;;;;5.33;2.97;;;12.10;90.50;;;;;;4996237;28;20494;-57
2021/05/10 01:57:55;;;;;;;4.73;3.30;;;12.10;90.70;;;;;;4996135;28;20224;-58
2021/05/10 02:00:26;;;;;;;4.00;3.10;;;12.00;91.00;;;;;;4995522;28;20940;-56
2021/05/10 02:02:52;;;;;;;5.20;2.80;;;12.00;90.90;;;;;;4995661;28;20822;-56
2021/05/10 02:05:19;;;;;;;4.53;2.83;;;11.90;91.00;;;;;;4994870;28;20452;-56
2021/05/10 02:07:51;;;;;;;4.10;2.80;;;11.90;91.20;;;;;;4997713;28;20436;-54
2021/05/10 02:10:22;;;;;;;4.50;3.07;;;11.90;90.90;;;;;;4995715;28;20427;-56
2021/05/10 02:13:08;;;;;;;3.70;2.80;;;11.90;90.70;;;;;;4998339;28;20431;-57
2021/05/10 02:15:36;;;;;;;2.80;2.60;;;11.90;90.60;;;;;;5000135;28;20456;-57
2021/05/10 02:18:03;;;;;;;6.20;2.87;;;11.90;90.50;;;;;;4999628;28;21371;-59
2021/05/10 02:20:31;;;;;;;4.13;2.90;;;11.90;90.70;;;;;;4994946;28;20454;-58
2021/05/10 02:22:58;;;;;;;4.43;3.20;;;11.90;90.60;;;;;;4997242;28;20514;-58
2021/05/10 02:25:29;;;;;;;5.37;3.17;;;11.80;90.80;;;;;;4993927;28;20864;-57
2021/05/10 02:27:55;;;;;;;4.80;3.07;;;11.80;90.90;;;;;;4994471;28;20424;-58
2021/05/10 02:30:24;;;;;;;4.40;2.90;;;11.80;90.90;;;;;;4995285;28;20937;-59
2021/05/10 02:32:51;;;;;;;3.80;3.40;;;11.70;91.00;;;;;;4987625;28;23208;-57
2021/05/10 02:35:17;;;;;;;4.30;3.20;;;11.70;91.00;;;;;;4994003;28;21139;-58
2021/05/10 02:37:43;;;;;;;4.97;3.20;;;11.70;91.40;;;;;;4994169;28;20459;-56
2021/05/10 02:40:10;;;;;;;5.97;3.47;;;11.70;91.40;;;;;;5003674;28;20223;-57
2021/05/10 02:42:36;;;;;;;2.77;2.50;;;11.70;91.50;;;;;;4993505;28;20489;-56
2021/05/10 02:45:04;;;;;;;3.23;2.90;;;11.70;91.50;;;;;;4996490;28;21023;-57
2021/05/10 02:47:30;;;;;;;3.90;3.10;;;11.70;91.70;;;;;;4996225;28;20514;-57
2021/05/10 02:49:56;;;;;;;7.83;3.10;;;11.70;91.50;;;;;;4996873;28;20542;-57
2021/05/10 02:52:22;;;;;;;4.90;3.13;;;11.70;91.40;;;;;;4997732;28;20203;-58
2021/05/10 02:54:48;;;;;;;5.00;2.90;;;11.70;91.80;;;;;;4997471;28;20191;-58
2021/05/10 02:57:14;;;;;;;4.00;3.20;;;11.70;91.80;;;;;;4995485;28;20188;-57
2021/05/10 02:59:39;;;;;;;3.37;3.07;;;11.70;92.00;;;;;;4996795;28;20478;-57
2021/05/10 03:02:05;;;;;;;8.83;3.40;;;11.80;92.20;;;;;;4997474;28;20351;-56
2021/05/10 03:04:31;;;;;;;4.00;3.60;;;11.80;92.30;;;;;;4993378;28;20613;-56
2021/05/10 03:06:57;;;;;;;4.50;3.57;;;11.80;92.00;;;;;;4993615;28;20286;-54
2021/05/10 03:09:22;;;;;;;4.10;3.27;;;11.80;92.40;;;;;;4994095;28;20239;-56
2021/05/10 03:11:48;;;;;;;11.23;4.00;;;11.80;92.70;;;;;;4995432;28;20362;-56
2021/05/10 03:14:16;;;;;;;3.50;3.13;;;11.80;92.60;;;;;;4994160;28;20538;-57
2021/05/10 03:16:42;;;;;;;5.00;3.40;;;11.90;92.60;;;;;;4993226;28;20183;-55
2021/05/10 03:19:10;;;;;;;4.57;3.37;;;11.90;92.30;;;;;;4989997;28;21170;-56
2021/05/10 03:21:38;;;;;;;6.73;3.60;;;11.90;92.20;;;;;;5002758;28;20234;-56
2021/05/10 03:24:07;;;;;;;7.33;3.37;;;11.80;92.60;;;;;;5005465;28;20424;-56
2021/05/10 03:26:34;;;;;;;4.17;3.30;;;11.80;92.20;;;;;;5006952;28;20497;-57
2021/05/10 03:29:01;;;;;;;3.40;3.07;;;11.80;92.50;;;;;;5003572;28;20447;-57
2021/05/10 03:31:26;;;;;;;5.30;3.20;;;11.80;92.80;;;;;;5007931;28;21034;-55
2021/05/10 03:33:52;;;;;;;10.93;4.20;;;11.90;92.90;;;;;;5007066;28;20521;-56
2021/05/10 03:36:18;;;;;;;7.23;4.40;;;11.90;92.30;;;;;;5001715;28;20188;-57
2021/05/10 03:38:43;;;;;;;6.27;3.93;;;11.80;92.30;;;;;;5002117;28;20673;-57
2021/05/10 03:41:09;;;;;;;4.10;3.70;;;11.90;92.70;;;;;;5006256;28;20252;-57
2021/05/10 03:43:35;;;;;;;3.87;3.47;;;11.90;92.90;;;;;;5005255;28;20172;-56
2021/05/10 03:46:00;;;;;;;10.60;4.03;;;11.90;93.30;;;;;;5004093;28;20184;-57
2021/05/10 03:48:26;;;;;;;8.90;3.73;;;11.90;92.90;;;;;;5000927;28;20207;-57
2021/05/10 03:50:51;;;;;;;4.20;3.60;;;11.90;93.20;;;;;;4998734;28;20203;-57
2021/05/10 03:53:17;;;;;;;11.00;4.00;;;11.90;93.00;;;;;;5001241;28;20200;-56
2021/05/10 03:55:43;;;;;;;5.50;4.23;;;11.90;93.10;;;;;;5006067;28;20180;-57
2021/05/10 03:58:08;;;;;;;5.53;3.27;;;11.90;92.90;;;;;;5002631;28;20254;-58
2021/05/10 04:00:34;;;;;;;5.40;3.73;;;11.90;93.00;;;;;;5023725;22;20693;-61
2021/05/10 04:03:01;;;;;;;6.30;4.10;;;11.90;93.80;;;;;;5022768;28;20176;-61
2021/05/10 04:10:55;;;;;;;4.83;3.50;;;11.80;93.10;;;;;;4981939;28;20448;-63
2021/05/10 04:16:05;;;;;;;4.90;3.27;;;11.80;92.30;;;;;;4982097;28;20880;-60
2021/05/10 04:18:31;;;;;;;4.17;3.37;;;11.80;92.30;;;;;;4979795;28;21440;-60
2021/05/10 04:20:57;;;;;;;7.90;3.47;;;11.80;92.50;;;;;;4979230;28;20436;-61
2021/05/10 04:23:24;;;;;;;3.90;3.00;;;11.80;92.20;;;;;;4974830;28;21173;-60
2021/05/10 04:25:51;;;;;;;6.10;3.50;;;11.80;92.20;;;;;;4974599;28;20575;-61
2021/05/10 04:28:17;;;;;;;4.50;3.30;;;11.80;92.50;;;;;;4974567;28;20436;-60
2021/05/10 04:30:45;;;;;;;4.27;3.23;;;11.90;92.30;;;;;;4974441;28;20476;-59
2021/05/10 04:33:11;;;;;;;3.50;3.20;;;11.90;92.10;;;;;;4978892;28;20440;-58
2021/05/10 04:35:37;;;;;;;8.50;3.67;;;11.90;92.10;;;;;;4985530;28;20868;-59
2021/05/10 04:38:13;;;;;;;4.37;3.47;;;12.00;92.30;;;;;;4978951;28;20486;-59
2021/05/10 04:40:39;;;;;;;6.10;3.13;;;12.00;92.50;;;;;;4992285;28;21227;-61
2021/05/10 04:43:06;;;;;;;4.80;3.80;;;12.00;92.30;;;;;;4991847;28;20551;-59
2021/05/10 04:45:31;;;;;;;6.10;3.80;;;12.10;92.30;;;;;;4972915;28;21025;-57
2021/05/10 04:47:57;;;;;;;4.90;4.07;;;12.10;92.80;;;;;;4982855;28;20547;-62
2021/05/10 04:50:23;;;;;;;5.83;3.70;;;12.10;92.90;;;;;;4982263;28;20201;-62
2021/05/10 04:52:49;;;;;;;4.90;3.30;;;12.10;92.60;;;;;;4982473;28;20669;-63
2021/05/10 04:55:14;;;;;;;4.90;3.63;;;12.20;93.10;;;;;;4984349;28;20897;-62
2021/05/10 04:57:40;;;;;;;11.73;4.20;;;12.20;92.70;;;;;;4976744;28;21145;-59
2021/05/10 05:00:09;;;;;;;6.27;3.40;;;12.20;92.60;;;;;;4979841;28;20216;-58
2021/05/10 05:02:35;;;;;;;4.93;4.20;;;12.20;92.70;;;;;;4980303;28;20435;-61
2021/05/10 05:05:00;;;;;;;17.60;4.60;;;12.20;92.60;;;;;;4983648;28;20483;-62
2021/05/10 05:07:26;;;;;;;8.20;3.80;;;12.20;92.80;;;;;;4984654;28;20177;-60
2021/05/10 05:09:52;;;;;;;6.83;4.10;;;12.20;92.80;;;;;;4979840;28;20248;-62
2021/05/10 05:12:18;;;;;;;5.13;3.40;;;12.20;92.90;;;;;;4983132;28;20185;-59
2021/05/10 05:14:43;;;;;;;6.73;4.27;;;12.20;93.10;;;;;;4981190;28;20264;-60
2021/05/10 05:17:09;;;;;;;4.17;3.77;;;12.20;93.70;;;;;;4983819;28;20523;-59
2021/05/10 05:19:34;;;;;;;11.30;4.30;;;12.20;93.70;;;;;;4989541;28;20201;-60
2021/05/10 05:22:00;;;;;;;10.40;3.90;;;12.20;93.60;;;;;;4979843;28;20181;-59
2021/05/10 05:24:26;;;;;;;5.90;4.30;;;12.20;93.60;;;;;;4972722;28;20627;-59
2021/05/10 05:26:51;;;;;;;5.33;3.73;;;12.30;93.20;;;;;;4978378;28;20185;-59
2021/05/10 05:29:21;;;;;;;4.13;3.73;;;12.30;92.60;;;;;;4976347;28;20851;-61
2021/05/10 05:31:47;;;;;;;7.27;3.90;;;12.40;92.50;;;;;;4983076;28;20185;-61
2021/05/10 05:34:13;;;;;;;8.23;4.30;;;12.40;92.30;;;;;;4986307;28;20434;-61
2021/05/10 05:36:38;;;;;;;5.20;4.13;;;12.40;92.10;;;;;;4985309;28;20713;-62
2021/05/10 05:39:07;;;;;;;6.40;4.30;;;12.40;92.00;;;;;;4983061;28;20211;-61
2021/05/10 05:41:33;;;;;;;5.93;4.07;;;12.40;92.00;;;;;;4979288;28;20186;-62
2021/05/10 05:43:58;;;;;;;7.33;3.70;;;12.50;92.30;;;;;;4985182;28;20487;-61
2021/05/10 05:46:29;;;;;;;4.27;3.90;;;12.50;92.40;;;;;;4981085;28;20952;-60
2021/05/10 05:48:55;;;;;;;4.43;3.73;;;12.60;92.40;;;;;;4985033;28;20255;-62
2021/05/10 05:51:22;;;;;;;5.17;4.07;;;12.70;92.70;;;;;;4992329;28;20436;-61
2021/05/10 05:53:50;;;;;;;4.87;4.27;;;12.70;92.70;;;;;;4980184;28;20460;-61
2021/05/10 05:56:16;;;;;;;6.43;4.10;;;12.80;92.60;;;;;;4984889;28;20490;-60
2021/05/10 05:58:42;;;;;;;8.03;4.70;;;12.80;92.40;;;;;;4977553;28;20948;-60
2021/05/10 06:01:08;;;;;;;7.03;4.17;;;12.90;92.40;;;;;;4983062;28;20260;-61
2021/05/10 06:03:34;;;;;;;6.03;4.10;;;13.00;92.20;;;;;;4987340;28;20515;-60
2021/05/10 06:05:59;;;;;;;6.10;3.83;;;13.10;92.00;;;;;;4984799;28;20174;-60
2021/05/10 06:08:25;;;;;;;8.77;4.53;;;13.10;91.30;;;;;;4989039;28;20232;-60
2021/05/10 06:10:51;;;;;;;5.50;4.13;;;13.20;92.00;;;;;;4977296;28;20209;-60
2021/05/10 06:13:17;;;;;;;13.27;4.33;;;13.30;91.40;;;;;;4975240;28;20178;-59
2021/05/10 06:15:42;;;;;;;8.93;4.30;;;13.40;91.60;;;;;;4978215;28;20459;-59
2021/05/10 06:18:09;;;;;;;7.10;4.43;;;13.50;91.70;;;;;;4978189;28;20216;-60
2021/05/10 06:20:35;;;;;;;7.00;4.27;;;13.60;91.50;;;;;;4988955;28;20251;-61
2021/05/10 06:23:04;;;;;;;6.60;3.83;;;13.60;90.90;;;;;;4987972;28;20451;-59
2021/05/10 06:25:31;;;;;;;7.77;4.20;;;13.60;90.60;;;;;;4984181;28;20384;-62
2021/05/10 06:27:57;;;;;;;7.90;4.50;;;13.60;90.50;;;;;;4990591;28;21109;-61
2021/05/10 06:30:23;;;;;;;7.67;4.80;;;13.60;90.70;;;;;;4989760;28;20456;-61
2021/05/10 06:32:49;;;;;;;10.80;5.50;;;13.70;90.80;;;;;;4983205;28;20514;-62
2021/05/10 06:35:16;;;;;;;8.70;4.87;;;13.70;90.40;;;;;;4989306;28;20462;-61
2021/05/10 06:37:42;;;;;;;8.37;4.97;;;13.80;90.50;;;;;;4990231;28;20852;-60
2021/05/10 06:40:08;;;;;;;8.27;4.80;;;13.80;90.60;;;;;;4985040;28;20456;-60
2021/05/10 06:42:34;;;;;;;7.80;4.90;;;13.90;90.60;;;;;;4986940;28;20443;-61
2021/05/10 06:45:02;;;;;;;9.03;5.03;;;13.90;90.50;;;;;;4989693;28;20428;-60
2021/05/10 06:47:27;;;;;;;9.50;4.77;;;14.00;91.00;;;;;;4987802;28;20526;-60
2021/05/10 06:49:53;;;;;;;12.00;5.70;;;14.00;90.50;;;;;;4976321;28;20458;-62
2021/05/10 06:52:19;;;;;;;9.80;4.73;;;14.00;91.00;;;;;;4980056;28;20181;-61
2021/05/10 06:54:45;;;;;;;8.40;5.30;;;14.00;91.20;;;;;;4977026;28;20545;-60
2021/05/10 06:57:10;;;;;;;12.20;5.57;;;14.00;91.40;;;;;;4979256;28;20185;-60
2021/05/10 06:59:37;;;;;;;10.83;5.60;;;14.20;91.90;;;;;;4976806;28;20283;-61
2021/05/10 07:02:03;;;;;;;13.13;6.00;;;14.20;91.10;;;;;;4978143;28;20185;-60
2021/05/10 07:04:29;;;;;;;29.23;6.70;;;14.30;89.10;;;;;;4984350;28;20420;-60
2021/05/10 07:06:55;;;;;;;15.70;6.50;;;14.30;89.20;;;;;;4985712;28;20801;-60
2021/05/10 07:09:22;;;;;;;21.70;5.90;;;14.30;88.80;;;;;;4986183;28;20197;-60
2021/05/10 07:11:48;;;;;;;15.13;6.77;;;14.30;88.60;;;;;;4979281;28;20472;-61
2021/05/10 07:14:13;;;;;;;11.23;7.13;;;14.40;88.80;;;;;;4978977;28;20935;-61
2021/05/10 07:16:39;;;;;;;20.30;6.70;;;14.50;89.10;;;;;;4979570;28;20711;-60
2021/05/10 07:19:05;;;;;;;15.33;7.20;;;14.50;88.70;;;;;;4979558;28;20231;-60
2021/05/10 07:21:30;;;;;;;21.40;7.67;;;14.60;90.10;;;;;;4977466;28;20654;-60
2021/05/10 07:23:56;;;;;;;22.47;6.90;;;14.80;90.30;;;;;;4976203;28;20689;-58
2021/05/10 07:26:22;;;;;;;13.90;6.40;;;14.90;90.40;;;;;;4978621;28;20177;-60
2021/05/10 07:28:48;;;;;;;19.33;6.97;;;15.00;90.20;;;;;;4982009;28;20535;-60
2021/05/10 07:31:14;;;;;;;12.23;6.40;;;15.20;90.30;;;;;;4985520;28;20181;-62
2021/05/10 07:33:39;;;;;;;13.13;6.27;;;15.50;89.50;;;;;;4981922;28;20436;-60
2021/05/10 07:36:05;;;;;;;13.23;6.80;;;15.80;87.20;;;;;;4986726;28;20823;-59
2021/05/10 07:38:31;;;;;;;16.37;7.60;;;16.10;83.70;;;;;;4984117;28;20185;-61
2021/05/10 07:40:57;;;;;;;12.40;6.97;;;16.40;81.10;;;;;;4986201;28;20438;-60
2021/05/10 07:43:23;;;;;;;14.77;6.80;;;16.50;75.70;;;;;;4986938;28;20420;-61
2021/05/10 07:45:49;;;;;;;7.60;6.13;;;16.50;74.80;;;;;;4997536;28;20507;-65
2021/05/10 07:48:15;;;;;;;15.43;6.50;;;16.70;77.20;;;;;;5005820;28;20178;-64
2021/05/10 07:50:40;;;;;;;18.10;6.00;;;16.90;77.70;;;;;;5003720;28;20260;-63
2021/05/10 07:53:06;;;;;;;14.20;6.00;;;17.10;75.40;;;;;;5002027;28;20227;-64
2021/05/10 07:55:34;;;;;;;18.10;6.70;;;17.30;74.20;;;;;;5003010;28;20323;-63
2021/05/10 07:57:59;;;;;;;14.90;6.03;;;17.40;73.60;;;;;;5004300;28;20189;-61
2021/05/10 08:00:31;;;;;;;16.97;6.70;;;17.50;72.80;;;;;;4996526;28;20498;-60
2021/05/10 08:03:05;;;;;;;12.27;6.73;;;17.70;70.70;;;;;;4993541;28;20539;-61
2021/05/10 08:05:31;;;;;;;20.13;7.27;;;17.80;70.30;;;;;;4986898;28;20397;-60
2021/05/10 08:07:56;;;;;;;7.70;5.50;;;18.10;72.40;;;;;;4988628;28;20477;-60
2021/05/10 08:10:22;;;;;;;9.70;5.07;;;18.20;69.50;;;;;;4986372;28;20203;-63
2021/05/10 08:12:48;;;;;;;5.20;4.67;;;18.20;68.60;;;;;;4987817;28;20252;-60
2021/05/10 08:15:14;;;;;;;7.60;4.17;;;18.20;64.20;;;;;;4986121;28;20832;-60
2021/05/10 08:17:40;;;;;;;5.33;3.70;;;18.30;64.90;;;;;;4982649;28;20567;-60
2021/05/10 08:20:07;;;;;;;6.70;3.50;;;18.30;66.00;;;;;;4989530;28;20193;-61
2021/05/10 08:22:33;;;;;;;5.13;2.97;;;18.30;63.70;;;;;;4987948;28;20413;-60
2021/05/10 08:24:59;;;;;;;3.87;2.07;;;18.50;61.00;;;;;;4989134;28;20519;-61
2021/05/10 08:27:24;;;;;;;2.00;1.80;;;18.80;58.50;;;;;;4987207;28;20511;-61
2021/05/10 08:29:50;;;;;;;1.83;1.40;;;19.10;53.30;;;;;;4988378;28;20279;-61
2021/05/10 08:32:16;;;;;;;2.70;1.60;;;19.40;48.10;;;;;;4988257;28;20177;-63
2021/05/10 08:34:41;;;;;;;5.23;1.60;;;19.80;45.40;;;;;;4985856;28;20197;-61
2021/05/10 08:37:07;;;;;;;1.30;1.13;;;20.20;43.70;;;;;;4984094;28;20425;-61
2021/05/10 08:39:33;;;;;;;2.03;1.20;;;20.50;42.80;;;;;;4988042;28;20216;-61
2021/05/10 08:41:59;;;;;;;2.20;1.23;;;20.70;44.00;;;;;;4984239;28;20177;-61
2021/05/10 08:44:25;;;;;;;3.00;2.10;;;20.80;43.80;;;;;;4987822;28;20804;-61
2021/05/10 08:46:50;;;;;;;2.20;1.40;;;20.80;42.50;;;;;;4990032;28;20275;-61
2021/05/10 08:49:20;;;;;;;1.43;1.33;;;20.90;40.20;;;;;;4991963;28;20208;-62
2021/05/10 08:51:46;;;;;;;1.33;1.23;;;20.90;41.00;;;;;;4988559;28;20185;-62
2021/05/10 08:54:21;;;;;;;2.07;1.33;;;21.00;41.20;;;;;;4981521;28;20440;-62
2021/05/10 08:56:47;;;;;;;2.47;1.20;;;21.10;40.90;;;;;;4981881;28;20530;-62
2021/05/10 08:59:13;;;;;;;2.13;1.40;;;21.30;41.20;;;;;;4982442;28;20555;-61
2021/05/10 09:01:54;;;;;;;4.23;1.60;;;21.50;41.40;;;;;;4980946;28;20756;-62
2021/05/10 09:04:35;;;;;;;1.93;1.47;;;21.60;40.90;;;;;;4981524;28;20195;-63
2021/05/10 09:07:17;;;;;;;3.60;1.57;;;21.80;42.50;;;;;;4982690;28;20453;-61
2021/05/10 09:09:53;;;;;;;2.00;1.80;;;21.90;43.90;;;;;;4984907;28;20471;-63
2021/05/10 09:12:20;;;;;;;3.53;1.70;;;21.90;42.00;;;;;;4986793;28;21104;-60
2021/05/10 09:14:46;;;;;;;1.60;1.50;;;22.00;43.00;;;;;;4980857;28;20428;-59
2021/05/10 09:17:12;;;;;;;1.40;1.30;;;22.00;41.50;;;;;;4981620;28;20424;-61
2021/05/10 09:19:48;;;;;;;4.07;1.27;;;22.10;40.50;;;;;;4990046;28;20814;-61
2021/05/10 09:22:14;;;;;;;1.60;1.20;;;22.30;41.80;;;;;;4984824;28;20208;-61
2021/05/10 09:24:46;;;;;;;3.67;1.50;;;22.50;43.20;;;;;;4986394;28;20432;-60
2021/05/10 09:27:27;;;;;;;1.60;1.40;;;22.70;43.30;;;;;;4987362;28;20459;-60
2021/05/10 09:30:14;;;;;;;1.33;1.20;;;22.80;43.10;;;;;;4982562;28;20840;-61
2021/05/10 09:32:44;;;;;;;2.30;1.40;;;22.80;42.40;;;;;;4987802;28;20987;-60
2021/05/10 09:35:17;;;;;;;1.50;1.40;;;22.80;41.20;;;;;;4985012;28;20554;-60
2021/05/10 09:37:43;;;;;;;2.67;1.40;;;22.80;41.00;;;;;;4990376;28;20456;-60
2021/05/10 09:40:10;;;;;;;3.33;1.47;;;22.70;41.10;;;;;;4987247;28;20495;-60
2021/05/10 09:42:53;;;;;;;1.40;1.30;;;22.70;40.40;;;;;;4984325;28;20231;-61
2021/05/10 09:45:29;;;;;;;1.60;1.50;;;22.60;40.30;;;;;;4978394;28;20450;-61
2021/05/10 09:48:05;;;;;;;3.23;1.50;;;22.60;40.10;;;;;;4983845;28;20440;-59
2021/05/10 09:50:39;;;;;;;3.77;1.60;;;22.60;40.30;;;;;;4975986;28;20452;-63
2021/05/10 09:53:07;;;;;;;1.53;1.20;;;22.60;40.80;;;;;;4981896;28;20437;-62
2021/05/10 09:55:48;;;;;;;1.53;1.27;;;22.60;38.30;;;;;;4978733;28;20991;-60
2021/05/10 09:58:14;;;;;;;3.10;1.23;;;22.70;38.20;;;;;;4976112;28;20554;-59
2021/05/10 10:00:41;;;;;;;1.33;1.23;;;22.80;39.80;;;;;;5043152;22;20497;-57
2021/05/10 10:04:01;;;;;;;2.80;1.70;;;22.80;40.80;;;;;;5041845;28;20480;-56
2021/05/10 10:06:29;;;;;;;2.27;1.47;;;22.90;41.40;;;;;;4974799;28;20447;-57
2021/05/10 10:08:56;;;;;;;2.37;1.50;;;23.00;41.40;;;;;;5038982;28;20442;-57
2021/05/10 10:11:24;;;;;;;2.13;1.63;;;23.10;40.60;;;;;;5025160;28;20967;-58
2021/05/10 10:13:51;;;;;;;3.23;1.50;;;23.10;41.50;;;;;;5013460;28;21987;-58
2021/05/10 10:16:20;;;;;;;1.50;1.40;;;23.10;42.60;;;;;;5008514;28;20906;-59
2021/05/10 10:18:47;;;;;;;3.23;1.70;;;23.10;43.70;;;;;;5026040;28;20442;-59
2021/05/10 10:21:14;;;;;;;3.00;1.90;;;23.20;45.30;;;;;;5023941;28;20736;-57
2021/05/10 10:23:41;;;;;;;3.63;1.97;;;23.20;45.30;;;;;;5022113;28;20844;-59
2021/05/10 10:26:10;;;;;;;2.50;2.30;;;23.20;44.20;;;;;;5020152;28;20481;-59
2021/05/10 10:28:38;;;;;;;5.60;2.00;;;23.10;45.00;;;;;;5016258;28;20945;-58
2021/05/10 10:31:25;;;;;;;5.03;1.97;;;23.10;46.10;;;;;;5014905;28;20744;-58
2021/05/10 10:33:52;;;;;;;3.73;2.17;;;23.00;46.80;;;;;;5016245;28;20902;-60
2021/05/10 10:36:35;;;;;;;3.97;2.30;;;22.90;46.50;;;;;;5023677;28;20504;-57
2021/05/10 10:39:10;;;;;;;2.43;2.20;;;22.80;46.90;;;;;;5023435;28;20451;-60
2021/05/10 10:41:54;;;;;;;7.00;2.27;;;22.70;46.80;;;;;;5024082;28;20446;-59
2021/05/10 10:44:43;;;;;;;4.03;2.20;;;22.60;47.10;;;;;;5024849;28;20429;-59
2021/05/10 10:47:14;;;;;;;3.50;2.23;;;22.50;47.20;;;;;;5020253;28;20477;-58
2021/05/10 10:49:42;;;;;;;4.20;2.63;;;22.50;47.40;;;;;;5019500;28;20960;-59
2021/05/10 10:52:23;;;;;;;2.60;2.40;;;22.40;47.80;;;;;;5020375;28;20441;-59
2021/05/10 10:55:13;;;;;;;3.20;2.40;;;22.30;48.30;;;;;;5026135;28;20430;-59
2021/05/10 10:57:39;;;;;;;5.67;2.53;;;22.20;48.60;;;;;;5024168;28;20481;-56
2021/05/10 11:00:06;;;;;;;2.80;2.10;;;22.00;48.80;;;;;;5009644;28;20504;-59
2021/05/10 11:02:44;;;;;;;3.47;2.63;;;22.00;49.50;;;;;;5024626;28;20529;-60
2021/05/10 11:05:23;;;;;;;3.73;2.57;;;21.80;49.40;;;;;;5015792;28;20803;-58
2021/05/10 11:08:04;;;;;;;3.37;2.17;;;21.60;49.10;;;;;;5023217;28;20465;-59
2021/05/10 11:10:47;;;;;;;4.20;2.60;;;21.50;49.90;;;;;;5017070;28;20572;-60
2021/05/10 11:13:39;;;;;;;3.73;2.67;;;21.30;50.20;;;;;;5017002;28;20450;-59
2021/05/10 11:16:20;;;;;;;2.20;2.00;;;21.20;50.80;;;;;;5000574;28;20982;-56
2021/05/10 11:18:54;;;;;;;3.03;2.20;;;21.20;50.90;;;;;;5036525;28;20835;-60
2021/05/10 11:21:25;;;;;;;5.73;2.80;;;21.20;51.30;;;;;;5021100;28;20537;-60
2021/05/10 11:23:59;;;;;;;7.30;3.10;;;21.10;50.30;;;;;;5024360;28;20957;-59
2021/05/10 11:26:46;;;;;;;6.83;3.10;;;21.00;50.80;;;;;;5026045;28;20887;-58
2021/05/10 11:29:24;;;;;;;3.23;2.87;;;20.90;51.70;;;;;;5013400;28;20847;-55
2021/05/10 11:31:53;;;;;;;6.60;2.87;;;20.80;51.90;;;;;;5017049;28;20433;-57
2021/05/10 11:34:30;;;;;;;6.37;3.20;;;20.70;52.80;;;;;;5013854;28;21084;-55
2021/05/10 11:36:58;;;;;;;5.47;2.40;;;20.60;54.20;;;;;;5012517;28;20437;-54
2021/05/10 11:39:28;;;;;;;9.87;2.70;;;20.60;55.50;;;;;;5001732;28;20957;-54
2021/05/10 11:42:00;;;;;;;7.50;2.77;;;20.50;56.30;;;;;;5013171;28;20418;-55
2021/05/10 11:44:29;;;;;;;7.07;3.73;;;20.40;55.90;;;;;;5013883;28;20430;-55
2021/05/10 11:46:56;;;;;;;3.13;2.83;;;20.30;56.40;;;;;;5010946;28;20464;-54
2021/05/10 11:49:36;;;;;;;5.20;2.70;;;20.20;58.40;;;;;;5008506;28;20452;-55
2021/05/10 11:52:15;;;;;;;9.63;3.13;;;20.10;59.80;;;;;;5012503;28;20429;-55
2021/05/10 11:54:54;;;;;;;4.13;2.63;;;20.00;59.70;;;;;;5011531;28;20464;-54
2021/05/10 11:57:22;;;;;;;4.47;2.83;;;20.00;61.90;;;;;;5008873;28;20442;-54
2021/05/10 12:02:27;;;;;;;3.67;2.80;;;19.80;63.10;;;;;;5017485;28;20430;-54
2021/05/10 12:04:59;;;;;;;9.10;3.10;;;19.70;63.80;;;;;;5026187;28;20473;-55
2021/05/10 12:07:27;;;;;;;5.60;2.67;;;19.60;62.40;;;;;;5023122;28;20460;-54
2021/05/10 12:09:57;;;;;;;4.73;2.50;;;19.50;65.30;;;;;;5018501;28;20917;-55
2021/05/10 12:12:42;;;;;;;10.43;2.80;;;19.40;65.20;;;;;;5025200;28;20793;-55
2021/05/10 12:15:23;;;;;;;6.33;2.70;;;19.30;65.50;;;;;;5020917;28;20514;-56
2021/05/10 12:17:54;;;;;;;6.00;2.70;;;19.20;66.00;;;;;;5029859;28;21033;-55
2021/05/10 12:20:23;;;;;;;6.80;2.73;;;19.20;67.70;;;;;;5012517;28;20468;-55
2021/05/10 12:22:59;;;;;;;4.43;2.93;;;19.10;65.70;;;;;;5019646;28;21348;-54
2021/05/10 12:25:36;;;;;;;3.67;3.17;;;19.00;68.10;;;;;;5023107;28;21032;-55
2021/05/10 12:28:08;;;;;;;3.27;2.50;;;19.00;67.20;;;;;;5022218;28;20430;-54
2021/05/10 12:30:44;;;;;;;3.90;2.50;;;19.00;68.90;;;;;;5020075;28;22229;-55
2021/05/10 12:33:15;;;;;;;6.33;2.50;;;19.10;68.30;;;;;;5022024;28;20949;-55
2021/05/10 12:35:53;;;;;;;3.30;2.30;;;19.30;69.70;;;;;;5017969;28;20930;-55
2021/05/10 12:38:30;;;;;;;8.27;2.70;;;19.60;61.30;;;;;;5017084;28;21074;-55
2021/05/10 12:40:57;;;;;;;3.50;2.20;;;19.60;61.40;;;;;;5013346;28;21230;-56
2021/05/10 12:43:33;;;;;;;3.27;2.30;;;19.60;61.80;;;;;;5016280;28;20501;-55
2021/05/10 12:46:04;;;;;;;6.80;2.30;;;19.60;61.40;;;;;;5015770;28;20426;-55
2021/05/10 12:48:45;;;;;;;6.50;2.40;;;19.60;59.80;;;;;;5015384;28;20450;-54
2021/05/10 12:51:24;;;;;;;3.90;2.17;;;19.60;62.40;;;;;;5007484;28;20715;-53
2021/05/10 12:54:00;;;;;;;3.43;2.13;;;19.60;62.30;;;;;;5016682;28;20430;-55
2021/05/10 12:56:27;;;;;;;5.30;2.10;;;19.70;62.60;;;;;;5014951;28;20441;-53
2021/05/10 12:58:53;;;;;;;2.23;1.90;;;19.80;63.30;;;;;;5017247;28;20966;-55
2021/05/10 13:01:29;;;;;;;7.00;2.50;;;20.00;63.70;;;;;;5015005;28;21043;-56
2021/05/10 13:03:57;;;;;;;8.10;2.07;;;20.20;62.60;;;;;;5012678;28;20180;-55